Time;durP1;ratioP1;P1;durP2;ratioP2;P2;SDS_P1;SDS_P2;PMS_P1;PMS_P2;Temp;Humidity;BMP_temperature;BMP_pressure;BME280_temperature;BME280_humidity;BME280_pressure;Samples;Min_cycle;Max_cycle;Signal;HPM_P1;HPM_P2
2022/09/18 00:00:57;;;;;;;12.40;6.80;;;;;;;19.08;100.00;98602.50;5091199;28;20035;-70
2022/09/18 00:03:23;;;;;;;21.33;7.32;;;;;;;18.42;100.00;98589.13;5091744;28;20406;-69
2022/09/18 00:05:48;;;;;;;12.65;7.38;;;;;;;18.86;100.00;98612.06;5090118;28;20034;-70
2022/09/18 00:08:13;;;;;;;12.95;7.68;;;;;;;18.71;100.00;98592.75;5091442;28;20114;-70
2022/09/18 00:10:41;;;;;;;35.28;9.77;;;;;;;18.62;100.00;98584.97;5090019;28;20379;-69
2022/09/18 00:13:06;;;;;;;36.45;10.25;;;;;;;18.37;100.00;98564.72;5091034;28;20028;-70
2022/09/18 00:15:31;;;;;;;21.50;9.93;;;;;;;18.69;100.00;98607.50;5089835;28;20054;-70
2022/09/18 00:17:57;;;;;;;32.40;8.80;;;;;;;18.76;100.00;98608.63;5091029;28;20458;-71
2022/09/18 00:20:22;;;;;;;24.42;9.40;;;;;;;18.44;100.00;98583.91;5091292;28;20063;-70
2022/09/18 00:22:48;;;;;;;33.92;9.70;;;;;;;18.99;100.00;98625.53;5089510;28;20024;-71
2022/09/18 00:25:13;;;;;;;31.13;10.60;;;;;;;18.71;100.00;98597.06;5091170;28;20028;-70
2022/09/18 00:27:39;;;;;;;61.92;11.23;;;;;;;18.94;100.00;98632.84;5090642;28;20484;-69
2022/09/18 00:30:05;;;;;;;45.65;9.45;;;;;;;19.08;100.00;98638.56;5090652;28;20028;-70
2022/09/18 00:32:30;;;;;;;84.28;11.02;;;;;;;18.69;100.00;98640.16;5089450;28;20117;-70
2022/09/18 00:34:55;;;;;;;54.30;10.13;;;;;;;18.78;100.00;98637.63;5091440;28;20036;-69
2022/09/18 00:37:21;;;;;;;29.00;8.95;;;;;;;18.87;100.00;98626.56;5089633;28;20089;-68
2022/09/18 00:39:46;;;;;;;48.13;9.38;;;;;;;18.31;100.00;98625.25;5090939;28;20423;-68
2022/09/18 00:42:12;;;;;;;32.53;8.65;;;;;;;18.53;100.00;98602.00;5090756;28;20073;-70
2022/09/18 00:44:45;;;;;;;20.13;7.93;;;;;;;18.62;100.00;98614.09;5090688;28;20028;-70
2022/09/18 00:47:10;;;;;;;30.35;8.40;;;;;;;18.14;100.00;98625.78;5089583;28;20417;-70
2022/09/18 00:49:50;;;;;;;9.95;6.95;;;;;;;18.37;100.00;98577.59;5090314;28;20062;-71
2022/09/18 00:52:17;;;;;;;10.77;7.55;;;;;;;18.33;100.00;98604.53;5090990;28;20028;-70
2022/09/18 00:54:48;;;;;;;17.15;9.05;;;;;;;18.19;100.00;98609.03;5090685;28;20035;-70
2022/09/18 00:57:18;;;;;;;13.87;8.87;;;;;;;18.04;100.00;98592.25;5090765;28;20115;-70
2022/09/18 00:59:49;;;;;;;14.02;8.60;;;;;;;18.41;100.00;98623.56;5089465;28;20266;-71
2022/09/18 01:02:15;;;;;;;26.33;8.15;;;;;;;18.06;100.00;98623.03;5090830;28;20032;-69
2022/09/18 01:04:41;;;;;;;158.23;10.25;;;;;;;17.84;100.00;98617.94;5089138;28;20051;-70
2022/09/18 01:07:17;;;;;;;56.97;7.78;;;;;;;17.36;100.00;98607.16;5090595;28;20485;-70
2022/09/18 01:09:54;;;;;;;41.25;7.18;;;;;;;17.67;100.00;98623.63;5090251;28;20115;-70
2022/09/18 01:12:44;;;;;;;30.20;7.72;;;;;;;17.93;100.00;98620.59;5089174;28;20032;-69
2022/09/18 01:15:33;;;;;;;71.90;7.78;;;;;;;17.65;100.00;98615.22;5090622;28;20067;-69
2022/09/18 01:18:07;;;;;;;18.05;5.57;;;;;;;17.68;100.00;98638.09;5090762;28;20020;-69
2022/09/18 01:20:39;;;;;;;6.72;5.32;;;;;;;17.98;100.00;98638.25;5090799;28;20031;-68
2022/09/18 01:23:42;;;;;;;23.77;5.20;;;;;;;17.73;100.00;98633.38;5089132;28;20559;-69
2022/09/18 01:26:17;;;;;;;7.22;5.32;;;;;;;18.02;100.00;98626.78;5090971;28;20032;-69
2022/09/18 01:28:46;;;;;;;97.55;7.38;;;;;;;18.23;100.00;98627.63;5094264;28;20034;-69
2022/09/18 01:31:33;;;;;;;16.67;6.15;;;;;;;18.03;100.00;98624.06;5094662;28;20040;-68
2022/09/18 01:34:25;;;;;;;23.80;6.72;;;;;;;18.14;100.00;98620.66;5092837;28;20547;-69
2022/09/18 01:36:59;;;;;;;13.60;6.07;;;;;;;18.09;100.00;98586.75;5090487;28;20583;-68
2022/09/18 01:39:41;;;;;;;14.45;6.00;;;;;;;17.87;100.00;98589.41;5094294;28;20064;-70
2022/09/18 01:42:09;;;;;;;9.77;5.82;;;;;;;18.36;100.00;98610.22;5093698;28;20046;-69
2022/09/18 01:44:40;;;;;;;16.98;7.03;;;;;;;18.23;100.00;98599.31;5094187;28;20024;-70
2022/09/18 01:47:09;;;;;;;23.52;8.15;;;;;;;17.96;100.00;98622.13;5093030;28;20032;-70
2022/09/18 01:49:44;;;;;;;22.45;9.05;;;;;;;17.78;100.00;98582.44;5093765;28;20118;-70
2022/09/18 01:52:16;;;;;;;20.42;9.60;;;;;;;18.34;100.00;98613.88;5093983;28;20036;-70
2022/09/18 01:54:44;;;;;;;18.02;8.80;;;;;;;18.00;100.00;98549.75;5094402;28;20035;-69
2022/09/18 01:57:16;;;;;;;16.13;8.98;;;;;;;18.13;100.00;98612.13;5093995;28;20035;-71
2022/09/18 01:59:47;;;;;;;19.60;8.43;;;;;;;18.18;100.00;98609.97;5092287;28;20407;-71
2022/09/18 02:02:23;;;;;;;20.10;10.05;;;;;;;18.08;100.00;98580.78;5092199;28;20028;-69
2022/09/18 02:04:53;;;;;;;19.70;10.30;;;;;;;18.32;100.00;98603.72;5092413;28;20062;-70
2022/09/18 02:07:27;;;;;;;21.45;10.10;;;;;;;18.18;100.00;98616.91;5093443;28;20066;-70
2022/09/18 02:09:53;;;;;;;36.92;8.25;;;;;;;18.10;100.00;98614.91;5093269;28;20039;-69
2022/09/18 02:12:24;;;;;;;28.10;8.20;;;;;;;17.93;100.00;98576.06;5093475;28;20028;-70
2022/09/18 02:14:54;;;;;;;72.32;8.30;;;;;;;17.64;100.00;98580.97;5092124;28;20028;-70
2022/09/18 02:17:32;;;;;;;45.83;8.48;;;;;;;18.02;100.00;98607.03;5092177;28;20040;-70
2022/09/18 02:20:05;;;;;;;135.77;9.73;;;;;;;17.72;100.00;98578.63;5091931;28;20048;-70
2022/09/18 02:22:33;;;;;;;70.82;8.80;;;;;;;17.75;100.00;98564.69;5093570;28;20427;-70
2022/09/18 02:25:05;;;;;;;77.07;9.32;;;;;;;17.83;100.00;98595.72;5093240;28;20379;-70
2022/09/18 02:27:32;;;;;;;133.57;10.43;;;;;;;17.30;100.00;98617.91;5093335;28;20159;-70
2022/09/18 02:30:00;;;;;;;45.15;9.88;;;;;;;17.63;100.00;98648.72;5092936;28;20452;-70
2022/09/18 02:32:26;;;;;;;29.23;9.30;;;;;;;17.78;100.00;98649.28;5093217;28;20036;-69
2022/09/18 02:34:51;;;;;;;25.48;11.10;;;;;;;17.86;100.00;98634.06;5092050;28;20042;-70
2022/09/18 02:37:43;;;;;;;63.67;12.90;;;;;;;17.93;100.00;98648.88;5090834;28;20032;-69
2022/09/18 02:40:26;;;;;;;20.80;10.77;;;;;;;17.96;100.00;98643.53;5092973;28;20032;-70
2022/09/18 02:43:07;;;;;;;15.43;9.35;;;;;;;17.70;100.00;98623.38;5092731;28;20659;-70
2022/09/18 02:45:45;;;;;;;9.82;6.80;;;;;;;17.79;100.00;98663.75;5092929;28;20063;-70
2022/09/18 02:48:30;;;;;;;6.15;5.00;;;;;;;17.93;100.00;98666.91;5093411;28;20049;-69
2022/09/18 02:51:16;;;;;;;6.55;4.60;;;;;;;18.07;100.00;98660.66;5092457;28;20414;-69
2022/09/18 02:53:50;;;;;;;6.25;4.20;;;;;;;17.91;100.00;98639.66;5092713;28;20024;-70
2022/09/18 02:56:15;;;;;;;6.57;3.65;;;;;;;17.94;100.00;98665.97;5092113;28;20054;-70
2022/09/18 02:58:55;;;;;;;5.95;3.50;;;;;;;18.02;100.00;98673.91;5091371;28;20024;-69
2022/09/18 03:01:23;;;;;;;5.22;3.72;;;;;;;18.12;100.00;98667.06;5091561;28;20024;-70
2022/09/18 03:03:50;;;;;;;4.35;3.70;;;;;;;18.16;100.00;98675.38;5091254;28;20024;-70
2022/09/18 03:06:16;;;;;;;3.78;3.35;;;;;;;18.26;100.00;98662.56;5091290;28;20596;-71
2022/09/18 03:08:42;;;;;;;6.78;3.25;;;;;;;18.17;100.00;98651.25;5092436;28;20058;-71
2022/09/18 03:11:08;;;;;;;3.67;2.83;;;;;;;18.01;100.00;98645.69;5092103;28;20112;-70
2022/09/18 03:13:33;;;;;;;2.90;2.60;;;;;;;18.11;100.00;98682.63;5091480;28;20486;-71
2022/09/18 03:15:59;;;;;;;4.93;2.28;;;;;;;18.06;100.00;98662.41;5091212;28;20040;-70
2022/09/18 03:18:25;;;;;;;3.17;2.22;;;;;;;18.15;100.00;98648.00;5092029;28;20060;-70
2022/09/18 03:20:50;;;;;;;3.25;2.60;;;;;;;18.32;100.00;98695.53;5090741;28;20032;-69
2022/09/18 03:23:15;;;;;;;7.25;2.70;;;;;;;18.30;100.00;98654.50;5091954;28;20110;-70
2022/09/18 03:25:41;;;;;;;5.10;2.80;;;;;;;18.59;100.00;98690.75;5091012;28;20024;-71
2022/09/18 03:28:06;;;;;;;4.10;3.30;;;;;;;18.39;100.00;98696.66;5092329;28;20028;-70
2022/09/18 03:30:32;;;;;;;5.55;3.50;;;;;;;18.44;100.00;98710.81;5091826;28;20028;-70
2022/09/18 03:32:57;;;;;;;5.45;4.53;;;;;;;18.06;100.00;98680.41;5092030;28;20032;-70
2022/09/18 03:35:23;;;;;;;7.57;5.32;;;;;;;18.06;100.00;98715.63;5091887;28;20035;-72
2022/09/18 03:37:48;;;;;;;7.50;6.20;;;;;;;17.76;100.00;98687.16;5092245;28;20032;-70
2022/09/18 03:40:14;;;;;;;7.32;5.60;;;;;;;18.01;100.00;98717.72;5090770;28;20034;-70
2022/09/18 03:42:43;;;;;;;6.80;6.05;;;;;;;17.87;100.00;98735.97;5092077;28;20413;-70
2022/09/18 03:45:10;;;;;;;7.05;6.00;;;;;;;17.42;100.00;98693.22;5091898;28;20028;-69
2022/09/18 03:47:36;;;;;;;7.10;5.32;;;;;;;17.54;100.00;98736.00;5091271;28;20079;-69
2022/09/18 03:50:02;;;;;;;4.88;4.40;;;;;;;17.35;100.00;98728.88;5091292;28;20039;-70
2022/09/18 03:52:28;;;;;;;6.10;4.20;;;;;;;17.16;100.00;98739.69;5090168;28;20042;-71
2022/09/18 03:54:54;;;;;;;4.38;3.90;;;;;;;17.27;100.00;98747.41;5090362;28;20039;-70
2022/09/18 03:57:19;;;;;;;4.32;3.90;;;;;;;17.05;100.00;98764.53;5091615;28;20059;-70
2022/09/18 03:59:45;;;;;;;5.32;3.75;;;;;;;17.07;100.00;98765.25;5091186;28;20028;-69
2022/09/18 04:02:10;;;;;;;3.75;3.40;;;;;;;16.68;100.00;98739.94;5089504;28;20118;-70
2022/09/18 04:04:36;;;;;;;3.55;3.10;;;;;;;16.79;100.00;98737.38;5089521;28;20028;-68
2022/09/18 04:07:01;;;;;;;2.72;2.53;;;;;;;16.79;100.00;98766.44;5089569;28;20410;-70
2022/09/18 04:09:27;;;;;;;3.30;2.35;;;;;;;16.64;100.00;98788.06;5090023;28;20039;-70
2022/09/18 04:11:52;;;;;;;2.15;2.03;;;;;;;16.48;100.00;98790.91;5089571;28;20024;-68
2022/09/18 04:14:17;;;;;;;2.30;2.10;;;;;;;16.52;100.00;98759.94;5091056;28;20039;-69
2022/09/18 04:16:43;;;;;;;2.05;1.80;;;;;;;16.53;100.00;98782.91;5090989;28;20020;-69
2022/09/18 04:19:08;;;;;;;3.67;1.92;;;;;;;16.52;100.00;98813.81;5089864;28;20048;-68
2022/09/18 04:21:34;;;;;;;2.30;2.10;;;;;;;16.39;100.00;98794.13;5090859;28;20028;-69
2022/09/18 04:23:59;;;;;;;3.05;1.80;;;;;;;16.61;100.00;98820.84;5090430;28;20034;-69
2022/09/18 04:26:25;;;;;;;1.70;1.60;;;;;;;16.16;100.00;98771.00;5090787;28;20031;-68
2022/09/18 04:28:51;;;;;;;1.80;1.60;;;;;;;16.49;100.00;98853.31;5091177;28;20506;-67
2022/09/18 04:31:17;;;;;;;3.85;1.70;;;;;;;16.27;100.00;98836.00;5089778;28;20046;-69
2022/09/18 04:33:42;;;;;;;4.03;1.30;;;;;;;16.37;100.00;98798.53;5088009;28;20028;-68
2022/09/18 04:36:09;;;;;;;1.50;1.40;;;;;;;16.53;100.00;98866.75;5090664;28;20070;-69
2022/09/18 04:38:35;;;;;;;1.83;1.55;;;;;;;16.22;100.00;98847.53;5090718;28;20113;-69
2022/09/18 04:41:00;;;;;;;5.75;1.33;;;;;;;16.00;100.00;98835.34;5087043;28;20032;-68
2022/09/18 04:43:27;;;;;;;1.58;1.20;;;;;;;16.55;100.00;98893.13;5090328;28;20138;-70
2022/09/18 04:45:53;;;;;;;1.23;1.13;;;;;;;16.35;100.00;98874.78;5090765;28;20032;-68
2022/09/18 04:48:19;;;;;;;5.57;1.00;;;;;;;16.46;100.00;98915.88;5090986;28;20028;-70
2022/09/18 04:50:45;;;;;;;2.80;1.10;;;;;;;16.79;100.00;98925.59;5089041;28;20050;-70
2022/09/18 04:53:11;;;;;;;3.13;0.90;;;;;;;16.57;100.00;98915.19;5088886;28;20020;-71
2022/09/18 04:55:38;;;;;;;1.95;0.95;;;;;;;16.42;100.00;98901.63;5089368;28;20539;-68
2022/09/18 04:58:11;;;;;;;1.10;1.00;;;;;;;16.57;100.00;98956.25;5090296;28;20541;-70
2022/09/18 05:00:37;;;;;;;2.42;0.70;;;;;;;16.73;100.00;98967.09;5090682;28;20558;-70
2022/09/18 05:03:06;;;;;;;2.65;0.80;;;;;;;16.64;100.00;98972.06;5094822;28;20054;-70
2022/09/18 05:05:32;;;;;;;1.90;0.75;;;;;;;16.58;100.00;98988.66;5094869;28;20030;-70
2022/09/18 05:08:01;;;;;;;1.50;0.77;;;;;;;16.61;100.00;99009.00;5093079;28;20395;-70
2022/09/18 05:10:27;;;;;;;0.90;0.65;;;;;;;16.37;100.00;98965.28;5094367;28;20111;-70
2022/09/18 05:12:53;;;;;;;1.25;0.60;;;;;;;16.36;100.00;98984.16;5093392;28;20111;-68
2022/09/18 05:15:20;;;;;;;2.67;0.60;;;;;;;16.68;100.00;99022.25;5094410;28;20020;-69
2022/09/18 05:17:46;;;;;;;2.78;0.65;;;;;;;16.90;100.00;99043.75;5092804;28;20032;-70
2022/09/18 05:20:12;;;;;;;3.72;0.70;;;;;;;16.90;100.00;99001.84;5094130;28;20093;-69
2022/09/18 05:22:38;;;;;;;0.70;0.40;;;;;;;17.03;100.00;99046.31;5093023;28;20413;-69
2022/09/18 05:25:04;;;;;;;0.95;0.32;;;;;;;16.97;100.00;99047.56;5093087;28;20028;-72
2022/09/18 05:27:29;;;;;;;0.45;0.40;;;;;;;16.54;100.00;99002.63;5094425;28;20032;-69
2022/09/18 05:29:55;;;;;;;3.67;0.40;;;;;;;17.14;100.00;99062.63;5094054;28;20173;-71
2022/09/18 05:32:20;;;;;;;2.22;0.40;;;;;;;17.15;100.00;99071.94;5093670;28;20028;-70
2022/09/18 05:34:48;;;;;;;0.68;0.35;;;;;;;16.71;100.00;99051.09;5092958;28;20024;-72
2022/09/18 05:37:13;;;;;;;0.30;0.30;;;;;;;16.85;100.00;99020.16;5094053;28;20039;-69
2022/09/18 05:39:39;;;;;;;1.38;0.50;;;;;;;17.42;100.00;99099.22;5094241;28;20063;-72
2022/09/18 05:42:04;;;;;;;1.08;0.40;;;;;;;17.22;100.00;99078.31;5093607;28;20413;-70
2022/09/18 05:44:30;;;;;;;0.80;0.43;;;;;;;17.27;100.00;99071.09;5093654;28;20050;-71
2022/09/18 05:46:55;;;;;;;2.70;0.50;;;;;;;17.19;100.00;99088.00;5094069;28;20028;-70
2022/09/18 05:49:21;;;;;;;2.42;0.40;;;;;;;17.62;100.00;99122.66;5093493;28;20024;-70
2022/09/18 05:51:46;;;;;;;2.10;0.35;;;;;;;17.62;100.00;99109.78;5092377;28;20035;-71
2022/09/18 05:54:12;;;;;;;1.08;0.40;;;;;;;17.28;100.00;99116.44;5093543;28;20073;-69
2022/09/18 05:56:37;;;;;;;0.45;0.40;;;;;;;17.62;100.00;99090.97;5093587;28;20115;-69
2022/09/18 05:59:03;;;;;;;2.10;0.65;;;;;;;17.44;100.00;99138.50;5092823;28;20108;-70
2022/09/18 06:01:29;;;;;;;1.63;0.40;;;;;;;17.50;100.00;99145.81;5091869;28;20036;-71
2022/09/18 06:03:55;;;;;;;2.15;0.40;;;;;;;17.46;100.00;99114.34;5093167;28;20486;-69
2022/09/18 06:06:20;;;;;;;1.27;0.52;;;;;;;17.34;100.00;99149.41;5092866;28;20036;-68
2022/09/18 06:08:46;;;;;;;1.48;0.40;;;;;;;17.74;100.00;99136.38;5093271;28;20050;-70
2022/09/18 06:11:11;;;;;;;0.75;0.40;;;;;;;17.31;100.00;99123.91;5091825;28;20032;-70
2022/09/18 06:13:37;;;;;;;2.05;0.60;;;;;;;17.05;100.00;99116.38;5093216;28;20094;-69
2022/09/18 06:16:02;;;;;;;2.28;0.40;;;;;;;16.89;100.00;99137.13;5092811;28;20020;-71
2022/09/18 06:18:28;;;;;;;0.43;0.30;;;;;;;16.95;100.00;99139.31;5092412;28;20047;-69
2022/09/18 06:20:56;;;;;;;0.30;0.30;;;;;;;16.73;100.00;99154.50;5093123;28;20028;-69
2022/09/18 06:23:25;;;;;;;0.47;0.40;;;;;;;16.67;100.00;99151.50;5092083;28;20470;-70
2022/09/18 06:25:57;;;;;;;0.77;0.52;;;;;;;16.78;100.00;99208.06;5093493;28;20032;-70
2022/09/18 06:28:22;;;;;;;1.95;0.60;;;;;;;16.88;100.00;99202.25;5093126;28;20033;-71
2022/09/18 06:30:48;;;;;;;0.60;0.50;;;;;;;16.75;100.00;99180.88;5092958;28;20051;-72
2022/09/18 06:33:13;;;;;;;2.75;0.45;;;;;;;16.31;100.00;99144.41;5090666;28;20486;-71
2022/09/18 06:35:39;;;;;;;0.85;0.40;;;;;;;16.51;100.00;99161.13;5087145;28;20387;-71
2022/09/18 06:38:05;;;;;;;0.40;0.35;;;;;;;16.57;100.00;99156.41;5093236;28;20020;-70
2022/09/18 06:40:31;;;;;;;2.35;0.70;;;;;;;16.78;100.00;99174.69;5093435;28;20024;-72
2022/09/18 06:42:58;;;;;;;0.75;0.30;;;;;;;16.73;100.00;99221.22;5092147;28;20482;-69
2022/09/18 06:45:25;;;;;;;6.18;0.55;;;;;;;16.66;100.00;99166.06;5092776;28;20417;-70
2022/09/18 06:47:54;;;;;;;1.55;0.60;;;;;;;16.66;100.00;99198.63;5092707;28;20110;-70
2022/09/18 06:50:23;;;;;;;1.42;0.50;;;;;;;16.79;100.00;99209.72;5092207;28;20035;-69
2022/09/18 06:52:49;;;;;;;2.05;0.70;;;;;;;16.61;100.00;99152.72;5091247;28;20081;-72
2022/09/18 06:55:16;;;;;;;2.00;0.75;;;;;;;16.78;100.00;99237.13;5092865;28;20027;-69
2022/09/18 06:57:42;;;;;;;1.90;0.80;;;;;;;16.94;100.00;99235.22;5090916;28;20032;-70
2022/09/18 07:00:09;;;;;;;1.25;1.00;;;;;;;16.95;100.00;99207.81;5092292;28;20093;-70
2022/09/18 07:02:36;;;;;;;1.15;0.90;;;;;;;17.06;100.00;99210.47;5092722;28;20036;-69
2022/09/18 07:05:02;;;;;;;1.30;0.90;;;;;;;17.16;100.00;99248.28;5092319;28;20035;-70
2022/09/18 07:07:27;;;;;;;0.93;0.93;;;;;;;17.19;100.00;99247.28;5090542;28;20028;-69
2022/09/18 07:09:57;;;;;;;2.60;1.05;;;;;;;17.34;100.00;99264.22;5092357;28;20105;-69
2022/09/18 07:12:22;;;;;;;2.42;1.00;;;;;;;16.68;100.00;99179.63;5091871;28;20028;-72
2022/09/18 07:14:48;;;;;;;2.47;1.08;;;;;;;17.21;100.00;99250.56;5091628;28;20042;-70
2022/09/18 07:17:13;;;;;;;2.47;1.00;;;;;;;17.52;100.00;99280.19;5092303;28;20111;-69
2022/09/18 07:19:38;;;;;;;1.02;0.93;;;;;;;17.10;100.00;99238.41;5091288;28;20054;-70
2022/09/18 07:22:04;;;;;;;1.23;0.93;;;;;;;17.15;100.00;99281.78;5092140;28;20478;-70
2022/09/18 07:24:30;;;;;;;1.45;1.10;;;;;;;17.02;100.00;99248.38;5089941;28;20032;-69
2022/09/18 07:26:56;;;;;;;5.15;1.20;;;;;;;17.22;100.00;99324.97;5091796;28;20035;-70
2022/09/18 07:29:22;;;;;;;6.75;1.50;;;;;;;17.18;100.00;99273.88;5090495;28;20024;-70
2022/09/18 07:31:47;;;;;;;1.30;1.20;;;;;;;17.11;100.00;99286.28;5091958;28;20462;-70
2022/09/18 07:34:13;;;;;;;2.33;1.27;;;;;;;17.15;100.00;99326.25;5090689;28;20024;-71
2022/09/18 07:36:38;;;;;;;3.20;1.40;;;;;;;17.70;100.00;99330.34;5092051;28;20122;-69
2022/09/18 07:39:04;;;;;;;3.38;1.35;;;;;;;17.22;100.00;99336.97;5091095;28;20051;-69
2022/09/18 07:41:29;;;;;;;1.65;1.45;;;;;;;17.32;100.00;99371.44;5091990;28;20036;-69
2022/09/18 07:43:55;;;;;;;2.45;1.50;;;;;;;17.40;100.00;99381.19;5091524;28;20020;-69
2022/09/18 07:46:21;;;;;;;2.25;1.33;;;;;;;17.16;100.00;99352.78;5091723;28;20055;-69
2022/09/18 07:48:46;;;;;;;2.05;1.55;;;;;;;17.24;100.00;99376.22;5090489;28;20031;-69
2022/09/18 07:51:11;;;;;;;1.63;1.38;;;;;;;17.24;100.00;99350.53;5091208;28;20032;-69
2022/09/18 07:53:37;;;;;;;3.55;1.70;;;;;;;17.29;100.00;99374.22;5091011;28;20106;-69
2022/09/18 07:56:10;;;;;;;1.60;1.50;;;;;;;17.27;100.00;99347.78;5089692;28;20039;-70
2022/09/18 07:58:36;;;;;;;2.58;1.60;;;;;;;17.24;100.00;99374.50;5090908;28;20413;-69
2022/09/18 08:01:03;;;;;;;2.17;1.60;;;;;;;17.56;100.00;99384.44;5091619;28;20031;-68
2022/09/18 08:03:29;;;;;;;2.83;1.85;;;;;;;17.68;100.00;99363.06;5091261;28;20048;-70
2022/09/18 08:05:54;;;;;;;4.00;1.80;;;;;;;17.18;100.00;99336.34;5091284;28;20153;-69
2022/09/18 08:08:20;;;;;;;2.22;1.80;;;;;;;17.47;100.00;99357.56;5091586;28;20089;-69
2022/09/18 08:10:46;;;;;;;2.78;1.80;;;;;;;17.65;100.00;99383.84;5091434;28;20561;-72
2022/09/18 08:13:11;;;;;;;2.95;1.90;;;;;;;17.65;100.00;99378.72;5090911;28;20043;-70
2022/09/18 08:15:39;;;;;;;3.55;1.70;;;;;;;17.87;100.00;99386.59;5091476;28;20032;-69
2022/09/18 08:18:06;;;;;;;1.75;1.50;;;;;;;17.44;100.00;99346.66;5091146;28;20061;-69
2022/09/18 08:20:35;;;;;;;2.97;1.70;;;;;;;17.71;100.00;99385.97;5091405;28;20118;-69
2022/09/18 08:23:02;;;;;;;2.38;1.70;;;;;;;17.40;100.00;99352.94;5090926;28;20043;-70
2022/09/18 08:25:29;;;;;;;2.15;1.90;;;;;;;17.61;100.00;99356.69;5091137;28;20035;-75
2022/09/18 08:27:58;;;;;;;2.28;2.08;;;;;;;17.79;100.00;99392.28;5089719;28;20071;-70
2022/09/18 08:30:24;;;;;;;3.17;1.90;;;;;;;18.31;100.00;99348.38;5090716;28;20024;-71
2022/09/18 08:32:49;;;;;;;6.25;1.70;;;;;;;18.39;100.00;99392.44;5090948;28;20024;-68
2022/09/18 08:35:14;;;;;;;3.42;1.92;;;;;;;19.00;100.00;99394.94;5087900;28;20122;-70
2022/09/18 08:37:47;;;;;;;3.10;1.63;;;;;;;18.78;100.00;99383.69;5089136;28;20128;-69
2022/09/18 08:40:15;;;;;;;3.45;1.80;;;;;;;18.48;100.00;99360.91;5090281;28;20492;-69
2022/09/18 08:42:57;;;;;;;1.45;1.30;;;;;;;18.13;100.00;99395.97;5090287;28;20059;-70
2022/09/18 08:45:34;;;;;;;1.73;1.58;;;;;;;18.72;100.00;99409.88;5090862;28;20119;-69
2022/09/18 08:48:07;;;;;;;1.80;1.50;;;;;;;18.51;100.00;99354.75;5090669;28;20470;-69
2022/09/18 08:50:38;;;;;;;1.75;1.50;;;;;;;18.69;100.00;99413.50;5089925;28;20020;-70
2022/09/18 08:53:16;;;;;;;1.50;1.40;;;;;;;18.64;100.00;99412.19;5089340;28;20504;-69
2022/09/18 08:55:46;;;;;;;1.40;1.13;;;;;;;18.88;100.00;99400.97;5089254;28;20028;-72
2022/09/18 08:58:15;;;;;;;1.63;1.00;;;;;;;18.67;100.00;99365.59;5090037;28;20024;-70
2022/09/18 09:00:43;;;;;;;2.40;1.10;;;;;;;19.56;100.00;99418.38;5090841;28;20028;-70
2022/09/18 09:03:12;;;;;;;2.15;1.20;;;;;;;19.64;100.00;99410.88;5090362;28;20035;-73
2022/09/18 09:05:45;;;;;;;1.20;1.02;;;;;;;19.21;100.00;99408.03;5090488;28;20020;-69
2022/09/18 09:08:19;;;;;;;2.25;1.00;;;;;;;19.25;100.00;99409.47;5090548;28;20435;-69
2022/09/18 09:11:16;;;;;;;1.75;0.90;;;;;;;19.80;100.00;99404.47;5090034;28;20115;-69
2022/09/18 09:14:18;;;;;;;1.20;1.10;;;;;;;19.60;98.32;99424.94;5090390;28;20024;-69
2022/09/18 09:16:49;;;;;;;1.95;0.85;;;;;;;20.13;97.63;99428.66;5090432;28;20119;-70
2022/09/18 09:19:27;;;;;;;2.20;1.10;;;;;;;20.81;88.68;99419.03;5090384;28;20044;-70
2022/09/18 09:21:59;;;;;;;4.30;1.15;;;;;;;20.36;84.61;99427.78;5090074;28;20482;-70
2022/09/18 09:24:32;;;;;;;1.77;0.88;;;;;;;21.04;79.38;99417.22;5090864;28;20036;-69
2022/09/18 09:27:03;;;;;;;1.00;0.77;;;;;;;21.56;69.78;99420.66;5088779;28;20169;-72
2022/09/18 09:29:36;;;;;;;1.67;0.60;;;;;;;20.92;72.83;99392.34;5088857;28;20080;-70
2022/09/18 09:32:29;;;;;;;1.27;0.60;;;;;;;21.40;67.54;99425.44;5089002;28;20055;-71
2022/09/18 09:35:03;;;;;;;1.98;0.60;;;;;;;21.33;69.26;99429.44;5089316;28;20063;-71
2022/09/18 09:37:39;;;;;;;0.52;0.52;;;;;;;20.61;64.92;99410.25;5090227;28;20039;-71
2022/09/18 09:40:41;;;;;;;0.93;0.68;;;;;;;21.33;69.07;99426.88;5089984;28;20110;-71
2022/09/18 09:43:18;;;;;;;1.67;0.70;;;;;;;20.68;69.44;99433.84;5086168;28;20044;-70
2022/09/18 09:45:49;;;;;;;2.30;0.70;;;;;;;20.08;75.53;99389.50;5089117;28;20059;-70
2022/09/18 09:48:26;;;;;;;1.75;0.80;;;;;;;20.42;75.99;99441.03;5091779;28;20032;-70
2022/09/18 09:50:57;;;;;;;0.77;0.70;;;;;;;20.12;78.73;99429.63;5094088;28;20510;-69
2022/09/18 09:53:25;;;;;;;2.00;0.75;;;;;;;20.42;77.68;99399.69;5093891;28;20024;-71
2022/09/18 09:56:15;;;;;;;1.05;0.70;;;;;;;20.50;80.08;99427.53;5093600;28;20466;-70
2022/09/18 09:59:17;;;;;;;1.20;0.90;;;;;;;20.87;75.03;99428.06;5092659;28;20027;-69
2022/09/18 10:01:57;;;;;;;1.00;0.80;;;;;;;20.75;74.19;99432.44;5093444;28;20036;-69
2022/09/18 10:04:29;;;;;;;0.80;0.80;;;;;;;20.42;75.60;99437.66;5093642;28;20115;-70
2022/09/18 10:07:29;;;;;;;1.58;0.90;;;;;;;20.60;74.79;99433.63;5093485;28;20532;-70
2022/09/18 10:10:05;;;;;;;1.50;1.10;;;;;;;20.25;79.12;99444.09;5093232;28;20024;-70
2022/09/18 10:12:51;;;;;;;2.75;0.90;;;;;;;20.50;74.28;99427.53;5093528;28;20028;-72
2022/09/18 10:15:27;;;;;;;2.22;0.80;;;;;;;21.16;71.43;99452.44;5092143;28;20512;-70
2022/09/18 10:17:58;;;;;;;1.00;0.90;;;;;;;21.81;69.15;99429.81;5090898;28;20032;-69
2022/09/18 10:20:29;;;;;;;4.63;1.10;;;;;;;21.49;67.26;99444.56;5093158;28;20482;-72
2022/09/18 10:23:00;;;;;;;2.47;0.90;;;;;;;21.30;67.86;99409.03;5092793;28;20028;-72
2022/09/18 10:25:28;;;;;;;2.58;1.00;;;;;;;22.26;64.93;99457.03;5092844;28;20094;-72
2022/09/18 10:27:54;;;;;;;1.30;1.00;;;;;;;22.84;59.39;99449.53;5092994;28;20020;-73
2022/09/18 10:30:19;;;;;;;1.20;1.10;;;;;;;22.52;63.61;99451.44;5093260;28;20039;-70
2022/09/18 10:32:44;;;;;;;2.05;1.00;;;;;;;22.19;63.67;99421.44;5091065;28;20036;-70
2022/09/18 10:35:28;;;;;;;2.15;1.30;;;;;;;21.43;69.00;99458.00;5093566;28;20482;-72
2022/09/18 10:37:54;;;;;;;1.38;1.27;;;;;;;20.75;68.73;99409.19;5093222;28;20028;-71
2022/09/18 10:40:29;;;;;;;3.05;1.20;;;;;;;21.65;67.21;99457.88;5093407;28;20041;-72
2022/09/18 10:42:55;;;;;;;1.20;1.10;;;;;;;22.32;61.44;99466.91;5092000;28;20036;-72
2022/09/18 10:45:23;;;;;;;2.03;1.10;;;;;;;21.81;62.11;99460.88;5093186;28;20032;-72
2022/09/18 10:47:49;;;;;;;2.42;1.40;;;;;;;22.62;59.79;99473.88;5091781;28;20024;-71
2022/09/18 10:50:18;;;;;;;1.23;1.02;;;;;;;23.02;60.72;99440.94;5093049;28;20035;-71
2022/09/18 10:52:45;;;;;;;2.50;1.17;;;;;;;23.18;59.21;99427.44;5091597;28;20111;-70
2022/09/18 10:55:13;;;;;;;1.95;1.30;;;;;;;22.89;60.60;99466.31;5092787;28;20028;-70
2022/09/18 10:57:39;;;;;;;2.22;1.20;;;;;;;23.78;58.81;99470.47;5091777;28;20028;-70
2022/09/18 11:00:10;;;;;;;2.00;1.20;;;;;;;23.34;58.97;99466.66;5091912;28;20509;-71
2022/09/18 11:02:46;;;;;;;1.67;1.10;;;;;;;23.64;53.04;99461.34;5092283;28;20027;-71
2022/09/18 11:05:26;;;;;;;3.03;1.30;;;;;;;23.16;51.22;99458.72;5092587;28;20024;-70
2022/09/18 11:07:55;;;;;;;1.73;1.23;;;;;;;23.12;54.80;99446.13;5091698;28;20024;-70
2022/09/18 11:10:22;;;;;;;2.00;1.00;;;;;;;23.48;51.85;99442.09;5092369;28;20035;-71
2022/09/18 11:12:55;;;;;;;2.72;1.10;;;;;;;23.25;49.12;99477.84;5092538;28;20036;-70
2022/09/18 11:15:24;;;;;;;1.15;1.05;;;;;;;23.40;52.78;99473.91;5092516;28;20035;-70
2022/09/18 11:17:53;;;;;;;1.85;1.25;;;;;;;23.39;53.47;99474.06;5091993;28;20035;-70
2022/09/18 11:20:27;;;;;;;1.50;1.00;;;;;;;22.88;52.90;99433.56;5092658;28;20051;-70
2022/09/18 11:23:12;;;;;;;1.20;1.10;;;;;;;22.96;52.82;99477.78;5092403;28;20028;-70
2022/09/18 11:25:37;;;;;;;2.15;1.20;;;;;;;23.00;54.22;99465.38;5092316;28;20024;-71
2022/09/18 11:28:26;;;;;;;1.38;1.23;;;;;;;23.29;53.29;99454.06;5092221;28;20063;-70
2022/09/18 11:31:17;;;;;;;3.17;1.50;;;;;;;23.26;52.84;99463.91;5091356;28;20426;-71
2022/09/18 11:33:46;;;;;;;1.63;1.30;;;;;;;23.41;54.44;99464.38;5081326;28;20032;-71
2022/09/18 11:36:14;;;;;;;1.45;1.20;;;;;;;23.31;55.62;99441.00;5091978;28;20036;-71